createdAt,value
2017-02-17T00:00:02.536Z,0
2017-02-17T00:05:02.843Z,0
2017-02-17T00:10:02.776Z,0
2017-02-17T00:15:02.762Z,0
2017-02-17T00:20:02.834Z,0
2017-02-17T00:25:02.816Z,0
2017-02-17T00:30:02.708Z,0
2017-02-17T00:35:02.578Z,0
2017-02-17T00:40:02.891Z,0
2017-02-17T00:45:02.678Z,0
2017-02-17T00:50:02.547Z,0
2017-02-17T00:55:03.295Z,0
2017-02-17T01:00:03.014Z,0
2017-02-17T01:05:03.227Z,0
2017-02-17T01:10:03.329Z,0
2017-02-17T01:15:03.192Z,0
2017-02-17T01:20:03.112Z,0
2017-02-17T01:25:02.925Z,0
2017-02-17T01:30:02.756Z,0
2017-02-17T01:35:03.469Z,0
2017-02-17T01:40:02.609Z,0
2017-02-17T01:45:02.597Z,0
2017-02-17T01:50:02.870Z,0
2017-02-17T01:55:02.811Z,0
2017-02-17T02:00:02.683Z,0
2017-02-17T02:05:03.386Z,0
2017-02-17T02:10:03.297Z,0
2017-02-17T02:15:03.122Z,0
2017-02-17T02:20:03.130Z,0
2017-02-17T02:25:03.208Z,0
2017-02-17T02:30:03.310Z,0
2017-02-17T02:35:06.255Z,0
2017-02-17T02:40:03.185Z,0
2017-02-17T02:45:03.177Z,0
2017-02-17T02:50:03.101Z,0
2017-02-17T02:55:03.147Z,0
2017-02-17T03:00:02.887Z,0
2017-02-17T03:05:02.533Z,0
2017-02-17T03:10:03.365Z,0
2017-02-17T03:15:03.378Z,0
2017-02-17T03:20:03.130Z,0
2017-02-17T03:25:03.102Z,0
2017-02-17T03:30:02.880Z,0
2017-02-17T03:35:02.695Z,0
2017-02-17T03:40:03.414Z,0
2017-02-17T03:45:03.295Z,0
2017-02-17T03:50:02.479Z,0
2017-02-17T03:55:03.362Z,0
2017-02-17T04:00:03.109Z,0
2017-02-17T04:05:02.955Z,0
2017-02-17T04:10:03.009Z,0
2017-02-17T04:15:02.898Z,0
2017-02-17T04:20:02.921Z,0
2017-02-17T04:25:02.854Z,0
2017-02-17T04:30:02.921Z,0
2017-02-17T04:35:02.912Z,0
2017-02-17T04:40:02.797Z,0
2017-02-17T04:45:02.791Z,0
2017-02-17T04:50:02.786Z,0
2017-02-17T04:55:02.631Z,0
2017-02-17T05:00:02.803Z,0
2017-02-17T05:05:02.704Z,0
2017-02-17T05:10:02.974Z,0
2017-02-17T05:15:03.073Z,0
2017-02-17T05:20:03.083Z,0
2017-02-17T05:25:02.867Z,0
2017-02-17T05:30:02.700Z,0
2017-02-17T05:35:02.509Z,0
2017-02-17T05:40:03.266Z,0
2017-02-17T05:55:03.234Z,0
2017-02-17T06:00:03.134Z,0
2017-02-17T06:05:02.881Z,0
2017-02-17T06:10:02.610Z,0
2017-02-17T06:15:02.721Z,0
2017-02-17T06:20:02.517Z,1
2017-02-17T06:25:03.341Z,2
2017-02-17T06:30:03.192Z,4
2017-02-17T06:35:02.979Z,6
2017-02-17T06:40:02.987Z,10
2017-02-17T06:45:03.097Z,16
2017-02-17T06:50:03.173Z,25
2017-02-17T06:55:03.207Z,33
2017-02-17T07:00:03.307Z,42
2017-02-17T07:05:03.344Z,55
2017-02-17T07:10:02.504Z,64
2017-02-17T07:15:02.561Z,66
2017-02-17T07:20:02.684Z,104
2017-02-17T07:25:02.834Z,92
2017-02-17T07:30:03.094Z,141
2017-02-17T07:35:03.060Z,270
2017-02-17T07:40:03.116Z,380
2017-02-17T07:45:03.096Z,547
2017-02-17T07:50:03.138Z,831
2017-02-17T07:55:03.284Z,754
2017-02-17T08:00:03.233Z,492
2017-02-17T08:05:03.321Z,626
2017-02-17T08:10:03.244Z,457
2017-02-17T08:15:02.970Z,575
2017-02-17T08:20:02.748Z,485
2017-02-17T08:25:02.845Z,610
2017-02-17T08:30:02.722Z,773
2017-02-17T08:35:02.555Z,828
2017-02-17T08:40:02.602Z,827
2017-02-17T08:45:02.516Z,800
2017-02-17T08:50:03.610Z,1000
2017-02-17T08:55:03.329Z,881
2017-02-17T09:00:03.005Z,902
2017-02-17T09:05:02.865Z,962
2017-02-17T09:10:02.844Z,1000
2017-02-17T09:15:02.572Z,1000
2017-02-17T09:20:03.355Z,1000
2017-02-17T09:25:03.111Z,722
2017-02-17T09:30:03.210Z,1000
2017-02-17T09:35:03.140Z,728
2017-02-17T09:40:02.894Z,1000
2017-02-17T09:45:02.652Z,1000
2017-02-17T09:50:02.508Z,2000
2017-02-17T09:55:03.383Z,4000
2017-02-17T10:00:03.209Z,3000
2017-02-17T10:05:03.313Z,3000
2017-02-17T10:10:03.397Z,2000
2017-02-17T10:15:03.519Z,2000
2017-02-17T10:20:02.572Z,883
2017-02-17T10:25:02.549Z,3000
2017-02-17T10:30:02.673Z,2000
2017-02-17T10:35:02.813Z,3000
2017-02-17T10:40:02.886Z,4000
2017-02-17T10:45:02.906Z,5000
2017-02-17T10:50:02.900Z,3000
2017-02-17T10:55:02.868Z,3000
2017-02-17T11:00:02.884Z,2000
2017-02-17T11:05:02.876Z,1000
2017-02-17T11:10:02.881Z,2000
2017-02-17T11:15:02.907Z,2000
2017-02-17T11:20:02.920Z,1000
2017-02-17T11:25:02.908Z,2000
2017-02-17T11:30:02.899Z,5000
2017-02-17T11:35:02.901Z,9000
2017-02-17T11:40:02.941Z,10000
2017-02-17T11:45:02.919Z,8000
2017-02-17T11:50:02.917Z,7000
2017-02-17T11:55:02.899Z,6000
2017-02-17T12:00:02.870Z,4000
2017-02-17T12:05:02.875Z,4000
2017-02-17T12:10:02.936Z,3000
2017-02-17T12:15:02.912Z,6000
2017-02-17T12:20:02.874Z,6000
2017-02-17T12:25:02.871Z,4000
2017-02-17T12:30:02.863Z,4000
2017-02-17T12:35:02.899Z,3000
2017-02-17T12:40:02.997Z,1000
2017-02-17T12:45:03.024Z,1000
2017-02-17T12:50:03.052Z,3000
2017-02-17T12:55:03.080Z,15000
2017-02-17T13:00:03.050Z,11000
2017-02-17T13:05:03.104Z,8000
2017-02-17T13:10:03.180Z,5000
2017-02-17T13:15:03.175Z,5000
2017-02-17T13:20:03.130Z,4000
2017-02-17T13:25:03.185Z,1000
2017-02-17T13:30:03.176Z,1000
2017-02-17T13:35:03.187Z,1000
2017-02-17T13:40:03.301Z,1000
2017-02-17T13:45:03.304Z,7000
2017-02-17T13:50:03.322Z,7000
2017-02-17T13:55:03.352Z,3000
2017-02-17T14:00:03.415Z,3000
2017-02-17T14:05:03.468Z,2000
2017-02-17T14:10:02.582Z,2000
2017-02-17T14:15:02.675Z,2000
2017-02-17T14:20:02.722Z,2000
2017-02-17T14:25:02.721Z,1000
2017-02-17T14:30:02.765Z,1000
2017-02-17T14:35:02.803Z,2000
2017-02-17T14:40:02.891Z,2000
2017-02-17T14:45:02.941Z,1000
2017-02-17T14:50:02.938Z,1000
2017-02-17T14:55:02.990Z,2000
2017-02-17T15:00:03.003Z,4000
2017-02-17T15:05:03.019Z,4000
2017-02-17T15:10:03.109Z,2000
2017-02-17T15:15:03.670Z,1000
2017-02-17T15:20:02.723Z,2000
2017-02-17T15:25:02.747Z,2000
2017-02-17T15:30:02.794Z,1000
2017-02-17T15:35:02.777Z,1000
2017-02-17T15:40:02.792Z,1000
2017-02-17T15:45:02.780Z,1000
2017-02-17T15:50:02.825Z,1000
2017-02-17T15:55:02.929Z,1000
2017-02-17T16:00:02.974Z,862
2017-02-17T16:05:03.006Z,771
2017-02-17T16:10:03.117Z,906
2017-02-17T16:15:03.089Z,721
2017-02-17T16:20:03.167Z,590
2017-02-17T16:25:03.177Z,459
2017-02-17T16:30:03.195Z,335
2017-02-17T16:35:03.170Z,219
2017-02-17T16:40:03.227Z,92
2017-02-17T16:45:03.237Z,70
2017-02-17T16:50:03.257Z,54
2017-02-17T16:55:03.333Z,45
2017-02-17T17:00:03.564Z,27
2017-02-17T17:05:02.551Z,13
2017-02-17T17:10:02.650Z,9
2017-02-17T17:15:02.618Z,5
2017-02-17T17:20:02.650Z,2
2017-02-17T17:25:02.757Z,1
2017-02-17T17:30:02.790Z,0
2017-02-17T17:35:02.864Z,0
2017-02-17T17:40:02.880Z,0
2017-02-17T17:45:02.887Z,0
2017-02-17T17:50:02.931Z,0
2017-02-17T17:55:02.904Z,0
2017-02-17T18:00:02.898Z,0
2017-02-17T18:05:03.050Z,0
2017-02-17T18:10:03.103Z,0
2017-02-17T18:15:03.016Z,0
2017-02-17T18:20:02.943Z,0
2017-02-17T18:25:02.942Z,0
2017-02-17T18:30:02.977Z,0
2017-02-17T18:35:02.991Z,0
2017-02-17T18:40:03.051Z,0
2017-02-17T18:45:03.046Z,0
2017-02-17T18:50:03.054Z,0
2017-02-17T18:55:03.048Z,0
2017-02-17T19:00:03.143Z,0
2017-02-17T19:05:03.115Z,0
2017-02-17T19:10:03.190Z,0
2017-02-17T19:15:03.204Z,0
2017-02-17T19:20:03.234Z,0
2017-02-17T19:25:03.290Z,0
2017-02-17T19:30:03.352Z,0
2017-02-17T19:35:03.403Z,0
2017-02-17T19:40:02.498Z,0
2017-02-17T19:45:02.527Z,0
2017-02-17T19:50:02.510Z,0
2017-02-17T19:55:02.516Z,0
2017-02-17T20:00:02.732Z,0
2017-02-17T20:05:02.806Z,0
2017-02-17T20:10:02.866Z,0
2017-02-17T20:15:02.897Z,0
2017-02-17T20:20:02.907Z,0
2017-02-17T20:25:02.876Z,0
2017-02-17T20:30:02.923Z,0
2017-02-17T20:35:02.866Z,0
2017-02-17T20:40:02.969Z,0
2017-02-17T20:45:02.986Z,0
2017-02-17T20:50:02.977Z,0
2017-02-17T20:55:02.997Z,0
2017-02-17T21:00:02.985Z,0
2017-02-17T21:05:02.971Z,0
2017-02-17T21:10:03.040Z,0
2017-02-17T21:15:03.057Z,0
2017-02-17T21:20:03.114Z,0
2017-02-17T21:25:03.147Z,0
2017-02-17T21:30:03.159Z,0
2017-02-17T21:35:03.215Z,0
2017-02-17T21:40:03.286Z,0
2017-02-17T21:45:03.339Z,0
2017-02-17T21:50:03.386Z,0
2017-02-17T21:55:03.366Z,0
2017-02-17T22:00:03.588Z,0
2017-02-17T22:05:02.657Z,0
2017-02-17T22:10:02.762Z,0
2017-02-17T22:15:02.778Z,0
2017-02-17T22:20:02.840Z,0
2017-02-17T22:25:02.913Z,0
2017-02-17T22:30:02.909Z,0
2017-02-17T22:35:02.947Z,0
2017-02-17T22:40:02.992Z,0
2017-02-17T22:45:02.927Z,0
2017-02-17T22:50:02.929Z,0
2017-02-17T22:55:02.940Z,0
2017-02-17T23:00:02.935Z,0
2017-02-17T23:05:02.975Z,0
2017-02-17T23:10:02.990Z,0
2017-02-17T23:15:03.013Z,0
2017-02-17T23:20:03.048Z,0
2017-02-17T23:25:03.046Z,0
2017-02-17T23:30:03.092Z,0
2017-02-17T23:35:03.089Z,0
2017-02-17T23:40:03.199Z,0
2017-02-17T23:45:03.172Z,0
2017-02-17T23:50:03.173Z,0
2017-02-17T23:55:03.257Z,0
